Time;durP1;ratioP1;P1;durP2;ratioP2;P2;SDS_P1;SDS_P2;PMS_P1;PMS_P2;Temp;Humidity;BMP_temperature;BMP_pressure;BME280_temperature;BME280_humidity;BME280_pressure;Samples;Min_cycle;Max_cycle;Signal;HPM_P1;HPM_P2
2021/10/26 00:00:38;;;;;;;11.15;6.50;;;10.50;99.90;;;9.87;96.85;61976.47;5060977;28;20584;-76
2021/10/26 00:03:06;;;;;;;14.38;6.65;;;10.40;99.90;;;9.84;97.98;61974.34;5037741;28;20106;-76
2021/10/26 00:05:34;;;;;;;10.65;5.20;;;10.40;99.90;;;9.82;97.44;61972.59;5095370;28;20044;-76
2021/10/26 00:08:01;;;;;;;10.73;5.72;;;10.40;99.90;;;9.81;97.19;61971.28;5078424;28;20094;-77
2021/10/26 00:10:28;;;;;;;13.23;5.80;;;10.40;99.90;;;9.80;97.24;61970.34;5074655;28;20512;-76
2021/10/26 00:12:55;;;;;;;11.20;6.15;;;10.40;99.90;;;9.79;97.33;61969.16;5095270;28;20509;-76
2021/10/26 00:15:22;;;;;;;13.90;5.93;;;10.40;99.90;;;9.78;96.96;61968.63;5077178;28;20418;-76
2021/10/26 00:17:49;;;;;;;10.40;5.75;;;10.40;99.90;;;9.77;97.13;61967.44;5063428;28;20082;-76
2021/10/26 00:20:17;;;;;;;9.65;5.32;;;10.50;99.90;;;9.76;96.75;61967.03;5078603;28;20135;-76
2021/10/26 00:22:44;;;;;;;8.68;5.50;;;10.50;99.90;;;9.74;97.79;61965.91;5076014;28;20144;-76
2021/10/26 00:25:11;;;;;;;14.90;6.00;;;10.50;99.90;;;9.74;97.02;61964.91;5078284;28;20270;-76
2021/10/26 00:27:39;;;;;;;11.80;6.53;;;10.50;99.90;;;9.73;96.44;61964.47;5094223;28;20082;-76
2021/10/26 00:30:07;;;;;;;12.88;6.05;;;10.50;99.90;;;9.73;96.98;61963.50;5100052;28;20044;-76
2021/10/26 00:32:34;;;;;;;9.93;5.75;;;10.50;99.90;;;9.71;97.07;61961.97;5075748;28;20528;-76
2021/10/26 00:35:01;;;;;;;9.70;5.53;;;10.60;99.90;;;9.71;96.76;61961.25;5061600;28;20442;-76
2021/10/26 00:37:27;;;;;;;10.90;5.35;;;10.60;99.90;;;9.70;96.43;61960.72;5073896;28;20151;-76
2021/10/26 00:39:54;;;;;;;10.35;4.90;;;10.60;99.90;;;9.71;95.95;61960.94;5090932;28;20040;-76
2021/10/26 00:42:21;;;;;;;11.18;5.32;;;10.60;99.90;;;9.71;95.98;61961.53;5091407;28;20067;-73
2021/10/26 00:44:48;;;;;;;13.15;5.47;;;10.60;99.90;;;9.71;96.21;61960.50;5093274;28;20139;-76
2021/10/26 00:47:15;;;;;;;8.90;5.28;;;10.60;99.90;;;9.70;96.54;61960.13;5072790;28;20128;-76
2021/10/26 00:49:42;;;;;;;13.07;5.82;;;10.60;99.90;;;9.70;96.28;61960.28;5079616;28;20124;-76
2021/10/26 00:52:09;;;;;;;12.63;5.55;;;10.60;99.90;;;9.70;96.34;61960.13;5086982;28;20134;-76
2021/10/26 00:54:36;;;;;;;17.42;5.57;;;10.60;99.90;;;9.69;96.49;61959.31;5076518;28;20130;-76
2021/10/26 00:57:04;;;;;;;16.60;6.22;;;10.60;99.90;;;9.68;97.28;61957.81;5082031;28;20366;-76
2021/10/26 00:59:31;;;;;;;11.95;6.05;;;10.60;99.90;;;9.67;97.09;61956.69;5072737;28;20135;-76
2021/10/26 01:01:58;;;;;;;13.98;5.82;;;10.60;99.90;;;9.66;96.54;61956.03;5091558;28;20105;-75
2021/10/26 01:04:26;;;;;;;10.48;5.35;;;10.60;99.90;;;9.66;96.32;61956.03;5091924;28;20067;-76
2021/10/26 01:06:55;;;;;;;10.85;5.72;;;10.60;99.90;;;9.66;95.75;61955.69;5056826;28;20070;-76
2021/10/26 01:09:22;;;;;;;8.35;5.63;;;10.50;99.90;;;9.66;96.12;61955.88;5058832;28;20080;-75
2021/10/26 01:11:50;;;;;;;11.18;5.90;;;10.50;99.90;;;9.66;95.83;61956.19;5054244;28;20068;-75
2021/10/26 01:14:17;;;;;;;14.07;6.65;;;10.50;99.90;;;9.67;95.75;61956.56;5056878;28;20132;-75
2021/10/26 01:16:44;;;;;;;9.75;5.72;;;10.50;99.90;;;9.66;96.41;61955.69;5068791;28;20494;-76
2021/10/26 01:19:12;;;;;;;12.73;5.95;;;10.50;99.90;;;9.66;96.61;61955.16;5053997;28;20072;-76
2021/10/26 01:21:39;;;;;;;11.63;6.40;;;10.50;99.90;;;9.66;96.07;61955.09;5089264;28;20040;-75
2021/10/26 01:24:06;;;;;;;10.90;5.55;;;10.50;99.90;;;9.66;96.48;61955.09;5062812;28;20067;-76
2021/10/26 01:26:33;;;;;;;11.75;6.25;;;10.40;99.90;;;9.66;96.53;61955.16;5080153;28;20071;-76
2021/10/26 01:29:00;;;;;;;10.50;5.97;;;10.40;99.90;;;9.65;97.06;61954.03;5091719;28;20048;-76
2021/10/26 01:31:27;;;;;;;12.55;5.88;;;10.40;99.90;;;9.64;97.99;61952.59;5055588;28;20076;-76
2021/10/26 01:33:54;;;;;;;10.82;5.63;;;10.40;99.90;;;9.63;97.20;61952.13;5089404;28;21552;-76
2021/10/26 01:36:22;;;;;;;11.23;5.90;;;10.40;99.90;;;9.63;96.75;61952.06;5075777;28;20107;-75
2021/10/26 01:38:49;;;;;;;11.43;6.13;;;10.40;99.90;;;9.62;97.71;61951.13;5092078;28;20469;-75
2021/10/26 01:41:17;;;;;;;11.23;5.43;;;10.40;99.90;;;9.62;98.03;61950.16;5059884;28;20051;-75
2021/10/26 01:43:44;;;;;;;14.43;6.82;;;10.40;99.90;;;9.60;98.78;61948.78;5078340;28;20051;-75
2021/10/26 01:46:11;;;;;;;12.93;6.07;;;10.40;99.90;;;9.59;98.37;61947.25;5077723;28;20059;-75
2021/10/26 01:48:38;;;;;;;15.20;5.65;;;10.40;99.90;;;9.58;98.44;61946.59;5092368;28;20047;-75
2021/10/26 01:51:05;;;;;;;15.10;7.15;;;10.40;99.90;;;9.58;98.24;61946.38;5093855;28;20086;-76
2021/10/26 01:53:32;;;;;;;15.73;6.25;;;10.30;99.90;;;9.57;98.09;61945.22;5088661;28;20098;-76
2021/10/26 01:56:01;;;;;;;13.23;6.03;;;10.30;99.90;;;9.56;98.77;61944.16;5091852;28;20147;-75
2021/10/26 01:58:28;;;;;;;18.23;7.35;;;10.30;99.90;;;9.54;99.51;61941.97;5080770;28;20071;-75
2021/10/26 02:00:55;;;;;;;17.73;7.47;;;10.30;99.90;;;9.52;100.00;61940.25;5074841;28;20072;-75
2021/10/26 02:03:22;;;;;;;12.82;7.15;;;10.30;99.90;;;9.50;100.00;61938.34;5078147;28;20462;-75
2021/10/26 02:05:51;;;;;;;12.75;6.75;;;10.30;99.90;;;9.49;100.00;61936.69;5092212;28;20531;-75
2021/10/26 02:08:18;;;;;;;10.68;6.10;;;10.40;99.90;;;9.48;100.00;61935.88;5091513;28;20410;-75
2021/10/26 02:10:45;;;;;;;15.90;6.57;;;10.30;99.90;;;9.47;99.96;61934.91;5091543;28;20086;-76
2021/10/26 02:13:14;;;;;;;15.13;6.95;;;10.30;99.90;;;9.47;100.00;61934.38;5074565;28;20072;-75
2021/10/26 02:15:41;;;;;;;12.32;5.65;;;10.30;99.90;;;9.46;99.67;61933.81;5056487;28;20076;-76
2021/10/26 02:18:08;;;;;;;14.90;6.00;;;10.30;99.90;;;9.46;99.21;61934.41;5090821;28;20098;-76
2021/10/26 02:20:36;;;;;;;9.90;5.75;;;10.40;99.90;;;9.46;98.97;61934.22;5089427;28;20085;-76
2021/10/26 02:23:03;;;;;;;13.88;5.82;;;10.30;99.90;;;9.47;98.86;61934.53;5069773;28;20463;-74
2021/10/26 02:25:31;;;;;;;10.90;5.75;;;10.30;99.90;;;9.47;99.06;61934.53;5082953;28;20128;-75
2021/10/26 02:27:58;;;;;;;10.63;5.40;;;10.30;99.90;;;9.46;99.13;61934.06;5087929;28;20072;-76
2021/10/26 02:30:25;;;;;;;12.95;6.47;;;10.30;99.90;;;9.46;99.05;61934.41;5070772;28;20040;-75
2021/10/26 02:32:52;;;;;;;10.50;5.68;;;10.40;99.90;;;9.47;98.46;61935.13;5082153;28;20454;-76
2021/10/26 02:35:19;;;;;;;13.65;6.78;;;10.40;99.90;;;9.47;98.64;61935.06;5089824;28;20413;-76
2021/10/26 02:37:46;;;;;;;11.88;6.18;;;10.40;99.90;;;9.47;98.82;61934.91;5083469;28;20098;-75
2021/10/26 02:40:13;;;;;;;9.43;6.05;;;10.40;99.90;;;9.48;98.43;61935.72;5072355;28;20130;-76
2021/10/26 02:42:40;;;;;;;11.00;5.72;;;10.40;99.90;;;9.49;97.90;61936.69;5079547;28;20076;-75
2021/10/26 02:45:08;;;;;;;10.15;6.00;;;10.50;99.90;;;9.49;97.54;61937.84;5058370;28;20060;-76
2021/10/26 02:47:37;;;;;;;11.18;6.57;;;10.40;99.90;;;9.50;97.59;61938.66;5058463;28;20069;-76
2021/10/26 02:50:05;;;;;;;10.93;6.53;;;10.40;99.90;;;9.51;97.40;61939.47;5089429;28;20102;-75
2021/10/26 02:52:33;;;;;;;10.32;5.85;;;10.40;99.90;;;9.51;97.68;61939.91;5083101;28;20043;-76
2021/10/26 02:55:00;;;;;;;11.95;5.88;;;10.40;99.90;;;9.51;98.03;61940.34;5072598;28;20149;-76
2021/10/26 02:57:27;;;;;;;16.17;7.35;;;10.40;99.90;;;9.51;97.85;61939.75;5090284;28;20448;-76
2021/10/26 02:59:54;;;;;;;16.17;6.50;;;10.40;99.90;;;9.50;98.88;61939.25;5086892;28;20487;-75
2021/10/26 03:02:21;;;;;;;11.85;6.95;;;10.40;99.90;;;9.50;98.52;61938.81;5076340;28;20127;-76
2021/10/26 03:04:48;;;;;;;15.98;7.20;;;10.40;99.90;;;9.50;97.80;61938.81;5088521;28;20054;-75
2021/10/26 03:07:16;;;;;;;14.35;6.63;;;10.40;99.90;;;9.50;97.53;61939.09;5060744;28;20044;-76
2021/10/26 03:09:46;;;;;;;12.95;6.03;;;10.40;99.90;;;9.51;97.80;61939.53;5079628;28;20119;-76
2021/10/26 03:12:13;;;;;;;9.63;6.15;;;10.40;99.90;;;9.51;97.91;61939.78;5054409;28;20040;-76
2021/10/26 03:14:40;;;;;;;11.18;7.13;;;10.40;99.90;;;9.51;98.39;61939.94;5037779;28;20075;-75
2021/10/26 03:17:07;;;;;;;12.50;6.63;;;10.40;99.90;;;9.50;98.09;61939.25;5086590;28;20091;-75
2021/10/26 03:19:34;;;;;;;13.50;5.47;;;10.40;99.90;;;9.51;97.90;61939.34;5072864;28;20064;-75
2021/10/26 03:22:00;;;;;;;9.65;5.93;;;10.40;99.90;;;9.50;99.16;61939.03;5054967;28;20082;-75
2021/10/26 03:24:27;;;;;;;12.90;5.90;;;10.40;99.90;;;9.50;98.44;61939.19;5039032;28;20076;-75
2021/10/26 03:26:55;;;;;;;16.67;7.50;;;10.30;99.90;;;9.50;99.21;61939.25;5086978;28;20414;-76
2021/10/26 03:29:22;;;;;;;13.90;6.38;;;10.30;99.90;;;9.49;99.25;61938.81;5059869;28;20488;-76
2021/10/26 03:31:56;;;;;;;14.07;6.97;;;10.30;99.90;;;9.48;99.73;61937.59;5072162;28;20220;-76
2021/10/26 03:34:23;;;;;;;13.30;6.53;;;10.30;99.90;;;9.47;99.63;61936.78;5089262;28;20048;-76
2021/10/26 03:36:50;;;;;;;14.63;5.82;;;10.30;99.90;;;9.47;99.07;61936.09;5098039;28;20458;-75
2021/10/26 03:39:17;;;;;;;18.33;6.30;;;10.20;99.90;;;9.46;99.31;61934.94;5076192;28;20074;-76
2021/10/26 03:41:44;;;;;;;12.38;6.07;;;10.20;99.90;;;9.46;98.71;61934.75;5089305;28;20134;-75
2021/10/26 03:44:12;;;;;;;13.93;7.10;;;10.20;99.90;;;9.45;99.15;61934.16;5080829;28;20076;-75
2021/10/26 03:46:39;;;;;;;13.00;7.05;;;10.20;99.90;;;9.45;99.23;61933.78;5063220;28;20040;-75
2021/10/26 03:49:06;;;;;;;12.30;6.13;;;10.20;99.90;;;9.44;98.98;61934.16;5078051;28;20047;-76
2021/10/26 03:51:33;;;;;;;16.23;6.50;;;10.30;99.90;;;9.44;99.33;61933.09;5081275;28;20105;-76
2021/10/26 03:54:02;;;;;;;15.73;6.53;;;10.30;99.90;;;9.43;99.32;61932.78;5059804;28;20048;-75
2021/10/26 03:56:31;;;;;;;22.35;7.65;;;10.20;99.90;;;9.43;98.82;61932.50;5061024;28;20048;-76
2021/10/26 03:59:00;;;;;;;14.55;5.63;;;10.20;99.90;;;9.43;98.64;61932.34;5089283;28;20032;-76
2021/10/26 04:01:27;;;;;;;14.98;6.00;;;10.20;99.90;;;9.42;98.82;61932.06;5060769;28;20060;-75
2021/10/26 04:03:54;;;;;;;13.48;6.20;;;10.20;99.90;;;9.42;99.21;61931.41;5056240;28;20115;-76
2021/10/26 04:06:24;;;;;;;12.63;6.50;;;10.20;99.90;;;9.41;99.92;61930.47;5090018;28;20136;-76
2021/10/26 04:09:03;;;;;;;15.73;7.15;;;10.20;99.90;;;9.40;99.69;61929.66;5071270;28;20083;-76
2021/10/26 04:11:39;;;;;;;15.48;6.57;;;10.10;99.90;;;9.39;99.68;61928.34;5062516;28;20044;-76
2021/10/26 04:14:06;;;;;;;16.60;7.03;;;10.10;99.90;;;9.38;100.00;61926.72;5053556;28;20064;-76
2021/10/26 04:16:33;;;;;;;23.17;7.45;;;10.10;99.90;;;9.36;100.00;61925.41;5089390;28;20122;-76
2021/10/26 04:19:00;;;;;;;13.50;6.78;;;10.10;99.90;;;9.35;100.00;61923.75;5072257;28;20558;-75
2021/10/26 04:21:29;;;;;;;13.80;7.13;;;10.10;99.90;;;9.34;100.00;61922.69;5081733;28;20049;-76
2021/10/26 04:23:56;;;;;;;16.70;6.75;;;10.10;99.90;;;9.32;100.00;61921.63;5066981;28;20071;-75
2021/10/26 04:26:23;;;;;;;13.05;6.65;;;10.00;99.90;;;9.31;100.00;61920.16;5069646;28;20139;-76
2021/10/26 04:28:50;;;;;;;14.88;6.60;;;10.10;99.90;;;9.29;100.00;61918.47;5060241;28;20071;-75
2021/10/26 04:31:17;;;;;;;15.48;6.53;;;10.10;99.90;;;9.29;100.00;61917.50;5088599;28;20044;-75
2021/10/26 04:33:45;;;;;;;13.90;6.72;;;10.10;99.90;;;9.28;100.00;61917.09;5056825;28;20054;-75
2021/10/26 04:36:12;;;;;;;13.65;7.82;;;10.10;99.90;;;9.27;100.00;61916.34;5073224;28;20048;-76
2021/10/26 04:38:39;;;;;;;15.27;8.57;;;10.10;99.90;;;9.26;100.00;61915.28;5072485;28;20132;-76
2021/10/26 04:41:11;;;;;;;13.35;8.00;;;10.10;99.90;;;9.25;100.00;61914.03;5066772;28;20517;-76
2021/10/26 04:43:38;;;;;;;16.00;8.65;;;10.10;99.90;;;9.24;100.00;61913.00;5086510;28;20055;-75
2021/10/26 04:46:05;;;;;;;18.48;9.48;;;10.10;99.90;;;9.24;100.00;61912.50;5099559;28;20080;-76
2021/10/26 04:48:32;;;;;;;14.48;7.20;;;10.10;99.90;;;9.23;100.00;61912.22;5072081;28;20052;-76
2021/10/26 04:50:59;;;;;;;18.13;9.07;;;10.10;99.90;;;9.23;100.00;61911.69;5037619;28;20135;-76
2021/10/26 04:53:26;;;;;;;16.75;8.52;;;10.10;99.90;;;9.23;100.00;61911.56;5070160;28;20127;-75
2021/10/26 04:55:53;;;;;;;19.40;8.30;;;10.00;99.90;;;9.22;100.00;61910.75;5060668;28;20071;-75
2021/10/26 04:58:20;;;;;;;20.92;12.85;;;10.00;99.90;;;9.21;100.00;61910.09;5071469;28;20058;-74
2021/10/26 05:00:47;;;;;;;23.45;9.60;;;9.90;99.90;;;9.19;100.00;61908.34;5037126;28;20135;-76
2021/10/26 05:03:14;;;;;;;28.40;13.02;;;10.00;99.90;;;9.18;100.00;61907.03;5092546;28;20059;-74
2021/10/26 05:05:41;;;;;;;17.00;9.60;;;9.90;99.90;;;9.16;100.00;61905.13;5086475;28;20036;-75
2021/10/26 05:08:08;;;;;;;22.83;12.60;;;9.90;99.90;;;9.14;100.00;61903.19;5082595;28;20079;-75
2021/10/26 05:10:35;;;;;;;27.05;15.40;;;9.90;99.90;;;9.13;100.00;61902.00;5086699;28;20517;-75
2021/10/26 05:13:03;;;;;;;18.75;9.57;;;9.90;99.90;;;9.12;100.00;61901.19;5072632;28;20053;-75
2021/10/26 05:15:30;;;;;;;18.33;9.75;;;9.90;99.90;;;9.11;100.00;61900.47;5062320;28;20078;-75
2021/10/26 05:17:57;;;;;;;21.55;10.00;;;9.90;99.90;;;9.10;100.00;61899.00;5092806;28;20048;-75
2021/10/26 05:20:25;;;;;;;22.23;9.13;;;9.90;99.90;;;9.09;100.00;61898.19;5064440;28;20129;-76
2021/10/26 05:22:55;;;;;;;25.02;12.10;;;9.90;99.90;;;9.08;100.00;61897.38;5086288;28;20316;-76
2021/10/26 05:25:22;;;;;;;22.45;7.63;;;9.90;99.90;;;9.08;100.00;61896.66;5076068;28;20040;-75
2021/10/26 05:27:49;;;;;;;23.98;12.43;;;9.80;99.90;;;9.07;100.00;61895.72;5055300;28;20086;-75
2021/10/26 05:30:16;;;;;;;15.45;8.55;;;9.80;99.90;;;9.06;100.00;61895.06;5048579;28;20080;-75
2021/10/26 05:32:43;;;;;;;11.13;7.60;;;9.80;99.90;;;9.06;100.00;61894.69;5055603;28;20050;-74
2021/10/26 05:35:10;;;;;;;29.38;16.98;;;9.80;99.90;;;9.05;100.00;61893.84;5079964;28;20127;-74
2021/10/26 05:37:37;;;;;;;24.55;13.57;;;9.80;99.90;;;9.04;100.00;61893.47;5062114;28;20101;-75
2021/10/26 05:40:06;;;;;;;16.77;9.85;;;9.80;99.90;;;9.04;100.00;61893.09;5092217;28;20072;-74
2021/10/26 05:42:33;;;;;;;25.45;14.18;;;9.80;99.90;;;9.03;100.00;61892.00;5091948;28;20059;-75
2021/10/26 05:45:01;;;;;;;27.88;15.52;;;9.80;99.90;;;9.02;100.00;61891.78;5078561;28;20090;-75
2021/10/26 05:47:28;;;;;;;19.50;12.05;;;9.80;99.90;;;9.02;100.00;61891.56;5072653;28;20560;-76
2021/10/26 05:49:56;;;;;;;17.23;8.07;;;9.80;99.90;;;9.01;100.00;61890.75;5040106;28;20059;-75
2021/10/26 05:52:23;;;;;;;20.40;11.35;;;9.90;99.90;;;9.01;100.00;61890.28;5075734;28;20067;-76
2021/10/26 05:54:50;;;;;;;14.30;8.85;;;9.90;99.90;;;9.00;100.00;61889.47;5075398;28;20052;-75
2021/10/26 05:57:17;;;;;;;16.52;8.40;;;9.90;99.90;;;9.00;100.00;61890.22;5075925;28;20083;-76
2021/10/26 05:59:44;;;;;;;15.00;9.35;;;9.90;99.90;;;9.00;100.00;61890.34;5056717;28;20545;-75
2021/10/26 06:02:11;;;;;;;15.65;10.60;;;9.90;99.90;;;9.00;100.00;61890.19;5060425;28;20127;-76
2021/10/26 06:04:38;;;;;;;15.68;9.68;;;9.80;99.90;;;9.00;100.00;61890.06;5046048;28;20139;-76
2021/10/26 06:07:05;;;;;;;21.00;10.00;;;9.90;99.90;;;9.00;100.00;61889.91;5060907;28;20045;-76
2021/10/26 06:09:34;;;;;;;16.45;9.73;;;9.90;99.90;;;8.99;100.00;61888.78;5083327;28;20567;-76
2021/10/26 06:12:03;;;;;;;19.40;11.38;;;9.90;99.90;;;8.99;100.00;61888.34;5069532;28;20060;-76
2021/10/26 06:14:30;;;;;;;21.63;12.48;;;10.00;99.90;;;8.99;100.00;61887.97;5084227;28;20048;-75
2021/10/26 06:17:01;;;;;;;19.67;12.35;;;9.90;99.90;;;8.98;100.00;61887.25;5058179;28;20074;-76
2021/10/26 06:19:28;;;;;;;16.70;11.60;;;10.00;99.90;;;8.98;100.00;61886.84;5073049;28;20105;-76
2021/10/26 06:21:55;;;;;;;20.00;13.38;;;9.90;99.90;;;8.98;100.00;61886.53;5068780;28;20566;-75
2021/10/26 06:24:22;;;;;;;19.33;10.65;;;10.00;99.90;;;8.98;100.00;61886.84;5096828;28;20044;-75
2021/10/26 06:26:49;;;;;;;20.30;12.98;;;9.90;99.90;;;8.98;100.00;61887.72;5070612;28;20090;-75
2021/10/26 06:29:16;;;;;;;27.58;18.00;;;9.90;99.90;;;8.98;100.00;61887.19;5097499;28;20143;-75
2021/10/26 06:31:43;;;;;;;27.08;17.35;;;10.00;99.90;;;8.97;100.00;61887.06;5077916;28;20103;-77
2021/10/26 06:34:11;;;;;;;24.63;15.23;;;10.00;99.90;;;8.97;100.00;61886.22;5061059;28;20080;-76
2021/10/26 06:36:46;;;;;;;32.72;17.88;;;10.00;99.90;;;8.97;100.00;61885.94;5091546;28;20060;-76
2021/10/26 06:39:14;;;;;;;25.23;12.95;;;10.10;99.90;;;8.97;100.00;61886.53;5085062;28;20044;-75
2021/10/26 06:41:41;;;;;;;24.50;15.82;;;10.00;99.90;;;8.97;100.00;61886.31;5063284;28;20040;-76
2021/10/26 06:44:08;;;;;;;21.67;13.60;;;10.00;99.90;;;8.97;100.00;61886.59;5035422;28;20389;-76
2021/10/26 06:46:38;;;;;;;27.67;16.23;;;10.00;99.90;;;8.98;100.00;61886.97;5076473;28;20108;-76
2021/10/26 06:49:05;;;;;;;28.75;16.40;;;10.00;99.90;;;8.98;100.00;61887.25;5074449;28;20113;-76
2021/10/26 06:51:32;;;;;;;27.13;17.38;;;10.10;99.90;;;8.99;100.00;61887.97;5068697;28;20486;-76
2021/10/26 06:54:01;;;;;;;24.83;14.90;;;10.10;99.90;;;9.00;100.00;61889.63;5056341;28;20083;-80
2021/10/26 06:56:29;;;;;;;30.83;15.57;;;10.20;99.90;;;9.01;100.00;61891.00;5077826;28;20142;-75
2021/10/26 06:58:56;;;;;;;31.02;17.60;;;10.20;99.90;;;9.02;100.00;61892.09;5075011;28;20126;-76
2021/10/26 07:01:23;;;;;;;22.25;15.25;;;10.20;99.90;;;9.04;100.00;61893.75;5095005;28;20359;-74
2021/10/26 07:03:50;;;;;;;28.35;15.73;;;10.20;99.90;;;9.05;100.00;61894.97;5070961;28;20066;-75
2021/10/26 07:06:17;;;;;;;26.63;16.55;;;10.20;99.90;;;9.06;100.00;61895.81;5073702;28;20075;-74
2021/10/26 07:08:44;;;;;;;20.75;12.93;;;10.20;99.90;;;9.07;100.00;61897.44;5074085;28;20083;-76
2021/10/26 07:11:11;;;;;;;30.55;17.83;;;10.20;99.90;;;9.08;100.00;61898.53;5075962;28;20055;-75
2021/10/26 07:13:39;;;;;;;27.25;15.23;;;10.20;99.90;;;9.10;100.00;61900.00;5059399;28;20155;-76
2021/10/26 07:16:07;;;;;;;32.15;16.60;;;10.30;99.90;;;9.11;100.00;61901.50;5092302;28;20346;-75
2021/10/26 07:18:35;;;;;;;20.30;13.07;;;10.20;99.90;;;9.13;100.00;61903.41;5074223;28;20075;-75
2021/10/26 07:21:03;;;;;;;21.60;13.98;;;10.30;99.90;;;9.16;100.00;61905.81;5072867;28;20475;-75
2021/10/26 07:23:31;;;;;;;18.45;11.15;;;10.30;99.90;;;9.18;100.00;61908.53;5057160;28;20051;-76
2021/10/26 07:25:58;;;;;;;19.02;11.20;;;10.40;99.90;;;9.21;100.00;61911.53;5039904;28;20573;-76
2021/10/26 07:28:24;;;;;;;24.15;13.40;;;10.40;99.90;;;9.24;100.00;61914.25;5080091;28;20071;-75
2021/10/26 07:30:52;;;;;;;16.35;11.02;;;10.50;99.90;;;9.26;100.00;61917.13;5078229;28;20126;-75
2021/10/26 07:33:25;;;;;;;14.65;11.27;;;10.50;99.90;;;9.28;100.00;61919.31;5067145;28;20131;-75
2021/10/26 07:35:55;;;;;;;18.73;11.00;;;10.60;99.90;;;9.31;100.00;61921.44;5073686;28;20470;-76
2021/10/26 07:38:37;;;;;;;17.52;10.95;;;10.60;99.90;;;9.33;100.00;61923.63;5078101;28;20417;-76
2021/10/26 07:41:05;;;;;;;18.40;11.23;;;10.70;99.90;;;9.35;100.00;61926.09;5054656;28;20130;-75
2021/10/26 07:43:35;;;;;;;16.65;10.27;;;10.70;99.90;;;9.38;100.00;61929.34;5073447;28;20072;-75
2021/10/26 07:46:05;;;;;;;14.63;10.48;;;10.80;99.90;;;9.41;100.00;61932.41;5069874;28;20111;-75
2021/10/26 07:48:32;;;;;;;16.63;11.43;;;10.90;99.90;;;9.45;100.00;61935.81;5078932;28;20043;-75
2021/10/26 07:51:02;;;;;;;18.58;11.07;;;10.90;99.90;;;9.48;100.00;61939.63;5073576;28;20079;-75
2021/10/26 07:53:30;;;;;;;16.95;12.18;;;10.90;99.90;;;9.51;100.00;61942.34;5072812;28;20117;-75
2021/10/26 07:56:08;;;;;;;15.25;11.57;;;11.00;99.90;;;9.54;100.00;61945.06;5074443;28;20055;-75
2021/10/26 07:58:39;;;;;;;20.40;11.75;;;11.00;99.90;;;9.55;100.00;61946.84;5054658;28;20127;-75
2021/10/26 08:01:06;;;;;;;17.40;11.38;;;11.10;99.90;;;9.58;100.00;61949.88;5072601;28;20413;-75
2021/10/26 08:03:34;;;;;;;16.98;11.50;;;11.00;99.90;;;9.61;100.00;61952.97;5081678;28;20054;-76
2021/10/26 08:06:02;;;;;;;17.92;11.88;;;11.00;99.90;;;9.64;100.00;61955.97;5093498;28;20068;-75
2021/10/26 08:08:34;;;;;;;17.80;10.43;;;11.00;99.90;;;9.67;100.00;61958.88;5073951;28;20126;-76
2021/10/26 08:11:02;;;;;;;16.00;10.32;;;11.00;99.90;;;9.69;100.00;61961.88;5075440;28;20060;-76
2021/10/26 08:13:29;;;;;;;14.93;10.20;;;11.10;99.90;;;9.72;100.00;61964.72;5080935;28;20090;-75
2021/10/26 08:15:56;;;;;;;21.00;11.48;;;11.20;99.90;;;9.74;100.00;61966.34;5072107;28;20394;-75
2021/10/26 08:18:23;;;;;;;17.35;11.40;;;11.30;99.90;;;9.76;100.00;61968.59;5076460;28;20106;-75
2021/10/26 08:20:50;;;;;;;15.20;9.25;;;11.20;99.90;;;9.77;100.00;61970.06;5094948;28;20581;-75
2021/10/26 08:23:20;;;;;;;14.05;8.48;;;11.20;99.90;;;9.79;100.00;61972.16;5070008;28;20097;-76
2021/10/26 08:25:50;;;;;;;13.18;9.10;;;11.20;99.90;;;9.81;100.00;61974.72;5039974;28;20070;-75
2021/10/26 08:28:18;;;;;;;12.05;8.05;;;11.10;99.90;;;9.83;100.00;61976.22;5049036;28;20497;-75
2021/10/26 08:35:41;;;;;;;21.23;9.75;;;11.10;99.90;;;9.86;100.00;61979.38;5066601;28;20040;-76
2021/10/26 08:38:09;;;;;;;15.15;9.23;;;11.10;99.90;;;9.86;100.00;61980.06;5063580;28;20079;-76
2021/10/26 08:40:46;;;;;;;15.18;9.38;;;11.00;99.90;;;9.86;100.00;61979.41;5067816;28;20493;-76
2021/10/26 08:43:22;;;;;;;13.35;8.80;;;10.90;99.90;;;9.86;100.00;61979.25;5061206;28;20045;-75
2021/10/26 08:45:52;;;;;;;14.25;9.23;;;11.00;99.90;;;9.85;100.00;61979.16;5085782;28;20051;-76
2021/10/26 08:48:24;;;;;;;17.98;10.38;;;10.90;99.90;;;9.85;100.00;61979.34;5063792;28;20044;-75
2021/10/26 08:50:59;;;;;;;17.95;9.98;;;10.90;99.90;;;9.85;100.00;61979.31;5067502;28;20051;-77
2021/10/26 08:53:32;;;;;;;12.35;8.43;;;10.90;99.90;;;9.86;100.00;61980.38;5065835;28;20048;-75
2021/10/26 08:56:03;;;;;;;14.32;8.20;;;11.00;99.90;;;9.88;100.00;61981.88;5053203;28;20040;-75
2021/10/26 08:58:33;;;;;;;12.10;7.78;;;11.00;99.90;;;9.89;100.00;61982.69;5088225;28;20425;-75
2021/10/26 09:01:01;;;;;;;13.93;7.53;;;11.10;99.90;;;9.90;100.00;61984.59;5061810;28;20048;-75
2021/10/26 09:03:33;;;;;;;12.45;7.93;;;11.10;99.90;;;9.92;100.00;61986.94;5083017;28;20074;-75
2021/10/26 09:06:03;;;;;;;11.17;7.73;;;11.20;99.90;;;9.95;100.00;61989.56;5058922;28;20060;-75
2021/10/26 09:08:30;;;;;;;16.42;9.77;;;11.30;99.90;;;9.97;100.00;61991.31;5082569;28;20905;-75
2021/10/26 09:17:06;;;;;;;14.98;9.25;;;11.30;99.90;;;10.04;99.35;61998.50;5065132;28;21231;-75
2021/10/26 09:19:42;;;;;;;14.55;8.23;;;11.40;99.90;;;10.07;98.18;62001.66;5035897;28;20044;-75
2021/10/26 09:22:13;;;;;;;11.00;7.32;;;11.60;99.90;;;10.10;98.99;62004.88;5047952;28;20051;-74
2021/10/26 09:25:13;;;;;;;8.63;6.35;;;11.60;99.90;;;10.13;97.46;62008.38;5034172;28;20063;-75
2021/10/26 09:27:40;;;;;;;14.30;8.50;;;11.80;99.90;;;10.17;96.58;62011.88;5077852;28;20049;-75
2021/10/26 09:30:17;;;;;;;14.20;7.47;;;11.90;99.90;;;10.22;95.97;62017.03;5087233;28;20158;-74
2021/10/26 09:32:48;;;;;;;12.63;8.23;;;12.00;99.90;;;10.27;95.04;62021.78;5053426;28;20454;-75
2021/10/26 09:35:18;;;;;;;12.00;5.95;;;12.20;99.90;;;10.33;92.71;62028.50;5069459;28;20043;-75
2021/10/26 09:37:51;;;;;;;13.30;7.43;;;12.40;99.90;;;10.40;93.02;62035.72;5050053;28;20299;-75
2021/10/26 09:40:19;;;;;;;11.93;6.68;;;12.40;99.90;;;10.48;93.22;62044.03;5063596;28;20062;-75
2021/10/26 09:42:49;;;;;;;14.75;7.93;;;12.60;99.90;;;10.54;91.84;62049.88;5049024;28;20040;-76
2021/10/26 09:45:25;;;;;;;11.30;5.60;;;12.60;99.90;;;10.62;91.42;62057.88;5065064;28;20549;-76
2021/10/26 09:47:57;;;;;;;8.48;5.43;;;12.70;99.90;;;10.69;90.28;62065.94;5086059;28;20052;-75
2021/10/26 09:50:31;;;;;;;12.25;5.57;;;12.70;99.90;;;10.72;93.02;62068.94;5055423;28;20082;-75
2021/10/26 09:53:14;;;;;;;10.20;4.85;;;12.60;99.90;;;10.73;93.49;62070.59;5068175;28;20421;-76
2021/10/26 09:55:48;;;;;;;9.15;5.13;;;12.50;99.90;;;10.74;93.72;62070.88;5070743;28;20131;-75
2021/10/26 09:58:20;;;;;;;7.63;4.47;;;12.40;99.90;;;10.75;93.51;62072.94;5088047;28;20052;-75
2021/10/26 10:00:50;;;;;;;9.52;4.85;;;12.30;99.90;;;10.75;94.07;62073.09;5067196;28;20044;-75
2021/10/26 10:03:23;;;;;;;7.68;4.13;;;12.20;99.90;;;10.77;93.50;62074.47;5087151;28;20066;-75
2021/10/26 10:05:54;;;;;;;11.45;4.93;;;12.00;99.90;;;10.76;93.90;62073.91;5065164;28;20119;-75
2021/10/26 10:08:29;;;;;;;9.60;5.07;;;11.90;99.90;;;10.76;93.66;62073.06;5056439;28;20056;-75
2021/10/26 10:11:17;;;;;;;10.68;4.97;;;11.90;99.90;;;10.77;93.74;62074.72;5063262;28;20503;-75
2021/10/26 10:13:54;;;;;;;13.00;5.95;;;11.90;99.90;;;10.78;93.85;62075.69;5059981;28;20094;-75
2021/10/26 10:16:25;;;;;;;15.10;7.00;;;11.90;99.90;;;10.78;94.11;62076.16;5075963;28;20048;-75
2021/10/26 10:18:55;;;;;;;19.27;7.18;;;12.00;99.90;;;10.77;93.74;62074.75;5072583;28;20059;-75
2021/10/26 10:21:29;;;;;;;11.35;7.15;;;11.90;99.90;;;10.76;94.44;62073.81;5055744;28;20098;-75
2021/10/26 10:24:00;;;;;;;17.55;7.85;;;11.80;99.90;;;10.75;94.27;62073.09;5079117;28;20040;-75
2021/10/26 10:26:30;;;;;;;13.45;7.95;;;11.80;99.90;;;10.75;94.18;62073.44;5069507;28;20044;-75
2021/10/26 10:29:01;;;;;;;12.75;7.45;;;11.80;99.90;;;10.76;94.24;62074.13;5071166;28;20079;-74
2021/10/26 10:31:28;;;;;;;12.48;7.70;;;11.80;99.90;;;10.77;94.71;62075.84;5056325;28;20043;-75